Time;durP1;ratioP1;P1;durP2;ratioP2;P2;SDS_P1;SDS_P2;PMS_P1;PMS_P2;Temp;Humidity;BMP_temperature;BMP_pressure;BME280_temperature;BME280_humidity;BME280_pressure;Samples;Min_cycle;Max_cycle;Signal;HPM_P1;HPM_P2
2022/01/24 00:01:59;;;;;;;249.18;86.30;;;;;;;;;;6239458;28;20037;-60
2022/01/24 00:04:59;;;;;;;236.80;86.47;;;;;;;;;;6235991;28;20128;-58
2022/01/24 00:08:00;;;;;;;235.23;81.88;;;;;;;;;;6238473;28;20100;-61
2022/01/24 00:11:06;;;;;;;210.63;74.82;;;;;;;;;;6239110;28;20412;-61
2022/01/24 00:17:41;;;;;;;222.90;75.70;;;;;;;;;;6242937;28;20049;-60
2022/01/24 00:27:22;;;;;;;198.35;64.35;;;;;;;;;;6237010;28;20076;-60
2022/01/24 00:30:22;;;;;;;180.32;62.00;;;;;;;;;;6241893;28;20581;-59
2022/01/24 00:33:24;;;;;;;176.60;59.75;;;;;;;;;;6243971;28;20053;-59
2022/01/24 00:36:24;;;;;;;173.20;59.13;;;;;;;;;;6242384;28;20519;-60
2022/01/24 00:39:25;;;;;;;150.90;55.97;;;;;;;;;;6234175;28;20382;-61
2022/01/24 00:42:49;;;;;;;159.90;52.58;;;;;;;;;;6241683;28;20089;-62
2022/01/24 00:45:59;;;;;;;181.88;59.67;;;;;;;;;;6239165;28;20038;-61
2022/01/24 00:55:41;;;;;;;141.18;50.38;;;;;;;;;;6244708;28;20503;-61
2022/01/24 00:58:42;;;;;;;144.07;49.15;;;;;;;;;;6241407;28;20053;-60
2022/01/24 01:01:46;;;;;;;139.90;46.88;;;;;;;;;;6244714;28;20045;-61
2022/01/24 01:07:56;;;;;;;137.30;48.72;;;;;;;;;;6237869;28;20156;-61
2022/01/24 01:18:10;;;;;;;114.30;42.22;;;;;;;;;;6186304;28;20051;-60
2022/01/24 01:21:13;;;;;;;119.50;44.30;;;;;;;;;;6237685;28;20052;-59
2022/01/24 01:24:14;;;;;;;119.85;41.70;;;;;;;;;;6230625;28;20052;-63
2022/01/24 01:27:21;;;;;;;115.55;42.75;;;;;;;;;;6239358;28;20052;-62
2022/01/24 01:30:33;;;;;;;110.60;41.03;;;;;;;;;;6239232;28;20042;-61
2022/01/24 01:34:01;;;;;;;105.18;43.08;;;;;;;;;;6236784;28;20095;-59
2022/01/24 01:40:41;;;;;;;101.30;37.70;;;;;;;;;;6237288;28;20140;-59
2022/01/24 01:56:40;;;;;;;141.60;48.35;;;;;;;;;;6241785;28;20099;-60
2022/01/24 01:59:42;;;;;;;123.65;45.17;;;;;;;;;;6234253;28;20451;-61
2022/01/24 02:02:43;;;;;;;135.37;48.17;;;;;;;;;;6234893;28;20087;-61
2022/01/24 02:05:43;;;;;;;135.65;44.30;;;;;;;;;;6235823;28;20420;-60
2022/01/24 02:08:44;;;;;;;124.65;43.22;;;;;;;;;;6234227;28;20481;-62
2022/01/24 02:11:47;;;;;;;117.78;39.95;;;;;;;;;;6236338;28;20049;-60
2022/01/24 02:14:55;;;;;;;108.40;37.22;;;;;;;;;;6233725;28;20378;-62
2022/01/24 02:18:09;;;;;;;118.38;40.95;;;;;;;;;;6232857;28;20053;-61
2022/01/24 02:21:41;;;;;;;115.78;38.53;;;;;;;;;;6235257;28;20076;-62
2022/01/24 02:24:52;;;;;;;112.78;39.63;;;;;;;;;;6236760;28;20049;-60
2022/01/24 02:27:57;;;;;;;117.32;39.05;;;;;;;;;;6233099;28;20132;-61
2022/01/24 02:34:33;;;;;;;110.55;38.13;;;;;;;;;;6225920;28;20080;-62
2022/01/24 02:37:34;;;;;;;106.57;36.95;;;;;;;;;;6235997;28;20065;-62
2022/01/24 02:40:35;;;;;;;129.18;41.15;;;;;;;;;;6232729;28;20748;-60
2022/01/24 02:50:03;;;;;;;109.72;36.72;;;;;;;;;;6233897;28;20134;-61
2022/01/24 02:53:04;;;;;;;94.60;34.50;;;;;;;;;;6235784;28;20048;-62
2022/01/24 02:56:05;;;;;;;84.88;32.40;;;;;;;;;;6230493;28;20512;-61
2022/01/24 02:59:06;;;;;;;119.70;39.63;;;;;;;;;;6232631;28;21062;-61
2022/01/24 03:02:07;;;;;;;103.97;35.42;;;;;;;;;;6234903;28;20556;-61
2022/01/24 03:05:08;;;;;;;107.70;35.65;;;;;;;;;;6233860;28;20053;-61
2022/01/24 03:08:09;;;;;;;118.07;38.75;;;;;;;;;;6232683;28;20140;-62
2022/01/24 03:11:10;;;;;;;115.50;37.73;;;;;;;;;;6232159;28;20077;-60
2022/01/24 03:14:10;;;;;;;101.07;34.47;;;;;;;;;;6238776;28;20514;-62
2022/01/24 03:17:11;;;;;;;98.57;34.35;;;;;;;;;;6234635;28;20050;-61
2022/01/24 03:20:12;;;;;;;109.03;34.38;;;;;;;;;;6231200;28;20140;-62
2022/01/24 03:23:14;;;;;;;95.78;31.25;;;;;;;;;;6234156;28;20132;-62
2022/01/24 03:26:15;;;;;;;;;;;;;;;;;;6235259;28;20145;-62
2022/01/24 03:29:16;;;;;;;72.78;25.98;;;;;;;;;;6231844;28;19929;-62
2022/01/24 03:32:16;;;;;;;89.05;29.35;;;;;;;;;;6233618;28;20492;-59
2022/01/24 03:35:18;;;;;;;86.07;32.25;;;;;;;;;;6234253;28;20202;-62
2022/01/24 03:38:18;;;;;;;93.70;31.65;;;;;;;;;;6232403;28;20143;-61
2022/01/24 03:41:20;;;;;;;103.20;32.65;;;;;;;;;;6234769;28;20077;-64
2022/01/24 03:44:21;;;;;;;94.35;34.20;;;;;;;;;;6232981;28;20050;-64
2022/01/24 03:47:44;;;;;;;93.38;35.00;;;;;;;;;;6234788;28;20123;-63
2022/01/24 03:50:45;;;;;;;95.47;32.15;;;;;;;;;;6238042;28;20855;-63
2022/01/24 03:53:47;;;;;;;91.60;34.45;;;;;;;;;;6240789;28;20049;-63
2022/01/24 03:56:47;;;;;;;97.07;34.23;;;;;;;;;;6237722;28;20128;-63
2022/01/24 03:59:48;;;;;;;102.93;37.00;;;;;;;;;;6238750;28;20131;-62
2022/01/24 04:02:49;;;;;;;96.05;35.45;;;;;;;;;;6237858;28;20045;-63
2022/01/24 04:05:50;;;;;;;97.28;34.17;;;;;;;;;;6241474;28;20045;-63
2022/01/24 04:08:50;;;;;;;88.30;32.38;;;;;;;;;;6236826;28;20740;-63
2022/01/24 04:11:54;;;;;;;78.47;29.35;;;;;;;;;;6239485;28;20056;-62
2022/01/24 04:15:08;;;;;;;85.38;29.98;;;;;;;;;;6236270;28;20370;-63
2022/01/24 04:18:27;;;;;;;100.25;33.80;;;;;;;;;;6235830;28;20480;-63
2022/01/24 04:21:31;;;;;;;86.13;30.92;;;;;;;;;;6238546;28;20140;-62
2022/01/24 04:24:32;;;;;;;81.80;30.30;;;;;;;;;;6241379;28;20081;-59
2022/01/24 04:27:33;;;;;;;87.95;27.08;;;;;;;;;;6238636;28;20051;-61
2022/01/24 04:30:34;;;;;;;88.15;29.75;;;;;;;;;;6238085;28;20170;-63
2022/01/24 04:33:34;;;;;;;96.40;33.13;;;;;;;;;;6238729;28;20050;-62
2022/01/24 04:36:35;;;;;;;99.57;35.60;;;;;;;;;;6265801;28;20405;-63
2022/01/24 04:39:36;;;;;;;93.70;32.25;;;;;;;;;;6236661;28;20081;-62
2022/01/24 04:42:51;;;;;;;93.70;32.42;;;;;;;;;;6239004;28;20042;-63
2022/01/24 04:46:06;;;;;;;87.40;31.90;;;;;;;;;;6240056;28;20520;-60
2022/01/24 04:55:30;;;;;;;88.07;33.65;;;;;;;;;;6239506;28;20045;-60
2022/01/24 04:58:31;;;;;;;83.00;31.83;;;;;;;;;;6244114;28;20172;-59
2022/01/24 05:01:32;;;;;;;91.90;32.90;;;;;;;;;;6235672;28;20053;-60
2022/01/24 05:04:32;;;;;;;83.47;32.08;;;;;;;;;;6243129;28;20130;-61
2022/01/24 05:07:33;;;;;;;93.00;29.73;;;;;;;;;;6242327;28;20107;-61
2022/01/24 05:10:53;;;;;;;92.43;34.28;;;;;;;;;;6242082;28;20167;-61
2022/01/24 05:23:52;;;;;;;93.25;30.55;;;;;;;;;;6239551;28;20099;-61
2022/01/24 05:26:52;;;;;;;84.25;30.02;;;;;;;;;;6236688;28;20049;-62
2022/01/24 05:29:53;;;;;;;86.93;31.75;;;;;;;;;;6241857;28;20033;-60
2022/01/24 05:32:54;;;;;;;90.78;33.95;;;;;;;;;;6242048;28;20045;-62
2022/01/24 05:35:55;;;;;;;100.72;33.97;;;;;;;;;;6249128;28;20181;-60
2022/01/24 05:38:57;;;;;;;100.15;33.60;;;;;;;;;;6250460;28;20072;-60
2022/01/24 05:41:57;;;;;;;106.13;33.40;;;;;;;;;;6234437;28;20045;-63
2022/01/24 05:44:59;;;;;;;93.90;32.70;;;;;;;;;;6239283;28;20228;-60
2022/01/24 05:48:00;;;;;;;103.90;37.47;;;;;;;;;;6234601;28;20034;-60
2022/01/24 05:51:01;;;;;;;107.10;35.58;;;;;;;;;;6238030;28;20037;-60
2022/01/24 05:54:02;;;;;;;116.35;36.42;;;;;;;;;;6236595;28;20395;-61
2022/01/24 05:57:03;;;;;;;105.28;37.20;;;;;;;;;;6239380;28;20044;-61
2022/01/24 06:00:09;;;;;;;111.50;37.15;;;;;;;;;;6235609;28;20045;-61
2022/01/24 06:03:10;;;;;;;104.85;36.05;;;;;;;;;;6233518;28;20331;-61
2022/01/24 06:06:11;;;;;;;118.85;35.75;;;;;;;;;;6234425;28;22062;-61
2022/01/24 06:09:11;;;;;;;112.15;36.38;;;;;;;;;;6236810;28;20034;-61
2022/01/24 06:12:12;;;;;;;116.35;37.88;;;;;;;;;;6235698;28;20084;-61
2022/01/24 06:15:13;;;;;;;131.18;41.70;;;;;;;;;;6237688;28;20131;-60
2022/01/24 06:18:14;;;;;;;130.23;41.50;;;;;;;;;;6236984;28;20052;-60
2022/01/24 06:21:15;;;;;;;106.10;35.38;;;;;;;;;;6236239;28;20041;-62
2022/01/24 06:24:15;;;;;;;105.47;34.88;;;;;;;;;;6235121;28;20050;-61
2022/01/24 06:27:17;;;;;;;102.57;32.53;;;;;;;;;;6233599;28;20042;-61
2022/01/24 06:30:18;;;;;;;111.32;36.47;;;;;;;;;;6239125;28;20129;-60
2022/01/24 06:33:19;;;;;;;101.40;32.45;;;;;;;;;;6235808;28;20049;-61
2022/01/24 06:36:19;;;;;;;106.18;34.28;;;;;;;;;;6237257;28;20041;-61
2022/01/24 06:39:20;;;;;;;105.85;33.33;;;;;;;;;;6235448;28;20062;-61
2022/01/24 06:42:22;;;;;;;101.53;32.28;;;;;;;;;;6235664;28;20591;-60
2022/01/24 06:45:23;;;;;;;;;;;;;;;;;;6235476;28;20199;-61
2022/01/24 06:48:24;;;;;;;108.43;33.15;;;;;;;;;;6234145;28;19921;-61
2022/01/24 06:51:25;;;;;;;101.97;34.30;;;;;;;;;;6231624;28;20065;-60
2022/01/24 06:54:25;;;;;;;117.65;38.63;;;;;;;;;;6235034;28;20072;-62
2022/01/24 06:57:26;;;;;;;122.97;40.55;;;;;;;;;;6235218;28;20034;-61
2022/01/24 07:00:29;;;;;;;133.40;43.47;;;;;;;;;;6233824;28;20053;-60
2022/01/24 07:03:30;;;;;;;123.13;41.70;;;;;;;;;;6231080;28;20077;-62
2022/01/24 07:06:30;;;;;;;133.73;42.53;;;;;;;;;;6234460;28;20047;-68
2022/01/24 07:09:31;;;;;;;114.30;39.45;;;;;;;;;;6234685;28;20060;-61
2022/01/24 07:12:32;;;;;;;111.85;39.88;;;;;;;;;;6235267;28;20121;-60
2022/01/24 07:15:37;;;;;;;108.80;37.17;;;;;;;;;;6234028;28;20069;-61
2022/01/24 07:22:02;;;;;;;105.45;38.03;;;;;;;;;;6237369;28;20034;-61
2022/01/24 07:25:03;;;;;;;107.63;36.25;;;;;;;;;;6243700;28;20058;-60
2022/01/24 07:28:04;;;;;;;101.80;36.67;;;;;;;;;;6243425;28;20088;-60
2022/01/24 07:31:05;;;;;;;110.22;40.10;;;;;;;;;;6244765;28;20159;-60
2022/01/24 07:34:05;;;;;;;109.00;37.10;;;;;;;;;;6240293;28;20034;-59
2022/01/24 07:37:06;;;;;;;110.80;36.35;;;;;;;;;;6244554;28;20120;-60
2022/01/24 07:40:09;;;;;;;110.15;36.30;;;;;;;;;;6247166;28;20037;-60
2022/01/24 07:43:12;;;;;;;107.65;35.78;;;;;;;;;;6242041;28;20057;-61
2022/01/24 07:46:13;;;;;;;110.78;38.38;;;;;;;;;;6242697;28;20049;-60
2022/01/24 07:49:13;;;;;;;114.30;38.97;;;;;;;;;;6248231;28;20452;-60
2022/01/24 07:52:14;;;;;;;110.97;37.95;;;;;;;;;;6243602;28;20080;-61
2022/01/24 07:55:15;;;;;;;108.45;42.10;;;;;;;;;;6242674;28;20571;-57
2022/01/24 07:58:16;;;;;;;115.40;39.65;;;;;;;;;;6243661;28;20408;-61
2022/01/24 08:01:19;;;;;;;99.50;38.55;;;;;;;;;;6245098;28;20414;-60
2022/01/24 08:04:19;;;;;;;118.10;42.33;;;;;;;;;;6240430;28;20665;-61
2022/01/24 08:07:20;;;;;;;124.28;43.67;;;;;;;;;;6239550;28;20136;-61
2022/01/24 08:10:21;;;;;;;120.68;42.58;;;;;;;;;;6244349;28;20068;-59
2022/01/24 08:13:21;;;;;;;120.75;42.50;;;;;;;;;;6243891;28;20117;-60
2022/01/24 08:16:22;;;;;;;137.70;46.05;;;;;;;;;;6243702;28;20072;-60
2022/01/24 08:19:23;;;;;;;113.32;41.13;;;;;;;;;;6245395;28;20065;-60
2022/01/24 08:22:24;;;;;;;114.05;40.30;;;;;;;;;;6243215;28;20546;-60
2022/01/24 08:25:26;;;;;;;116.57;41.30;;;;;;;;;;6245611;28;20479;-60
2022/01/24 08:28:27;;;;;;;133.02;53.42;;;;;;;;;;6245225;28;20033;-60
2022/01/24 08:31:27;;;;;;;107.95;41.58;;;;;;;;;;6245530;28;20084;-59
2022/01/24 08:34:28;;;;;;;111.80;40.97;;;;;;;;;;6243286;28;20053;-60
2022/01/24 08:37:29;;;;;;;104.60;37.63;;;;;;;;;;6242232;28;20159;-59
2022/01/24 08:40:32;;;;;;;178.43;68.25;;;;;;;;;;6244657;28;20049;-60
2022/01/24 08:46:50;;;;;;;156.73;57.92;;;;;;;;;;6241599;28;20065;-59
2022/01/24 08:49:51;;;;;;;163.65;59.88;;;;;;;;;;6246290;28;20053;-60
2022/01/24 08:52:59;;;;;;;206.73;68.57;;;;;;;;;;6239403;28;20144;-60
2022/01/24 08:56:04;;;;;;;178.57;61.47;;;;;;;;;;6243999;28;20069;-61
2022/01/24 08:59:06;;;;;;;141.98;49.88;;;;;;;;;;6235300;28;20057;-60
2022/01/24 09:02:08;;;;;;;149.18;51.50;;;;;;;;;;6237831;28;20037;-60
2022/01/24 09:05:09;;;;;;;140.15;50.67;;;;;;;;;;6254097;28;20076;-61
2022/01/24 09:08:10;;;;;;;152.20;51.63;;;;;;;;;;6249009;28;20053;-60
2022/01/24 09:11:11;;;;;;;126.13;46.72;;;;;;;;;;6257732;28;21135;-60
2022/01/24 09:14:12;;;;;;;124.03;47.58;;;;;;;;;;6237988;28;20394;-60
2022/01/24 09:17:14;;;;;;;119.28;44.63;;;;;;;;;;6239999;28;20053;-60
2022/01/24 09:20:15;;;;;;;160.73;58.00;;;;;;;;;;6237442;28;20058;-60
2022/01/24 09:23:17;;;;;;;123.30;45.85;;;;;;;;;;6243529;28;20500;-61
2022/01/24 09:26:18;;;;;;;123.33;44.83;;;;;;;;;;6237216;28;20195;-60
2022/01/24 09:29:19;;;;;;;119.70;42.90;;;;;;;;;;6246496;28;20310;-61
2022/01/24 09:32:19;;;;;;;111.82;44.38;;;;;;;;;;6241327;28;20489;-60
2022/01/24 09:35:20;;;;;;;120.13;43.70;;;;;;;;;;6232782;28;20191;-60
2022/01/24 09:38:23;;;;;;;114.05;41.60;;;;;;;;;;6232386;28;20496;-60
2022/01/24 09:41:26;;;;;;;116.45;42.17;;;;;;;;;;6223061;28;20144;-60
2022/01/24 09:44:27;;;;;;;112.80;42.15;;;;;;;;;;6223953;28;20050;-60
2022/01/24 09:47:28;;;;;;;126.97;45.60;;;;;;;;;;6225456;28;20095;-60
2022/01/24 09:50:30;;;;;;;117.70;41.70;;;;;;;;;;6224783;28;20048;-59
2022/01/24 09:53:32;;;;;;;117.95;41.42;;;;;;;;;;6229508;28;20169;-60
2022/01/24 09:56:34;;;;;;;105.25;37.88;;;;;;;;;;6229671;28;20049;-61
2022/01/24 09:59:35;;;;;;;87.65;35.15;;;;;;;;;;6228644;28;20033;-60
2022/01/24 10:02:36;;;;;;;92.70;34.58;;;;;;;;;;6226478;28;20080;-60
2022/01/24 10:05:37;;;;;;;89.57;33.15;;;;;;;;;;6227236;28;20046;-60
2022/01/24 10:08:38;;;;;;;46.85;16.73;;;;;;;;;;6222756;28;20053;-60
2022/01/24 10:11:39;;;;;;;54.78;20.13;;;;;;;;;;6221126;28;20081;-61
2022/01/24 10:18:07;;;;;;;49.42;19.17;;;;;;;;;;6224121;28;20049;-61
2022/01/24 10:21:16;;;;;;;;;;;;;;;;;;6220020;28;20050;-61
2022/01/24 10:24:26;;;;;;;53.33;20.42;;;;;;;;;;6223355;28;20044;-61
2022/01/24 10:27:28;;;;;;;43.17;15.25;;;;;;;;;;6225001;28;20504;-60
2022/01/24 10:30:30;;;;;;;44.95;17.73;;;;;;;;;;6219343;28;20472;-61
2022/01/24 10:33:32;;;;;;;38.13;16.33;;;;;;;;;;6221188;28;20057;-61
2022/01/24 10:36:48;;;;;;;39.47;14.73;;;;;;;;;;6222571;28;20568;-60
2022/01/24 10:39:59;;;;;;;39.20;16.38;;;;;;;;;;6219424;28;20057;-61
2022/01/24 10:43:17;;;;;;;48.17;18.50;;;;;;;;;;6222437;28;20176;-61
2022/01/24 10:46:27;;;;;;;41.42;15.98;;;;;;;;;;6222534;28;20057;-60
2022/01/24 10:49:32;;;;;;;42.88;16.30;;;;;;;;;;6221187;28;20111;-61
2022/01/24 10:52:34;;;;;;;44.70;17.52;;;;;;;;;;6225169;28;20489;-61
2022/01/24 10:55:35;;;;;;;49.95;19.52;;;;;;;;;;6228218;28;20147;-60
2022/01/24 10:58:36;;;;;;;52.65;19.90;;;;;;;;;;6226751;28;20496;-61
2022/01/24 11:01:43;;;;;;;58.10;21.30;;;;;;;;;;6230273;28;20132;-60
2022/01/24 11:04:44;;;;;;;44.40;18.15;;;;;;;;;;6230623;28;20767;-60
2022/01/24 11:07:54;;;;;;;52.72;19.42;;;;;;;;;;6229450;28;20080;-60
2022/01/24 11:10:54;;;;;;;53.47;19.88;;;;;;;;;;6219543;28;20049;-61
2022/01/24 11:13:55;;;;;;;44.75;18.13;;;;;;;;;;6226097;28;20041;-60
2022/01/24 11:16:59;;;;;;;54.38;21.23;;;;;;;;;;6221467;28;20072;-61
2022/01/24 11:20:02;;;;;;;32.22;14.10;;;;;;;;;;6219058;28;20089;-61
2022/01/24 11:23:06;;;;;;;40.30;17.00;;;;;;;;;;6220637;28;20188;-61
2022/01/24 11:26:07;;;;;;;45.08;17.13;;;;;;;;;;6221798;28;20452;-60
2022/01/24 11:29:08;;;;;;;41.63;16.65;;;;;;;;;;6220140;28;20057;-60
2022/01/24 11:32:26;;;;;;;36.70;15.38;;;;;;;;;;6221042;28;20136;-61
2022/01/24 11:35:44;;;;;;;56.75;21.90;;;;;;;;;;6222367;28;20061;-61
2022/01/24 11:38:45;;;;;;;69.13;25.48;;;;;;;;;;6218804;28;20132;-61
2022/01/24 11:41:47;;;;;;;62.70;23.63;;;;;;;;;;6219193;28;20061;-60
2022/01/24 11:44:49;;;;;;;67.43;24.67;;;;;;;;;;6221409;28;20057;-61
2022/01/24 11:47:50;;;;;;;52.55;19.80;;;;;;;;;;6223204;28;20077;-61
2022/01/24 11:51:05;;;;;;;59.55;21.50;;;;;;;;;;6220643;28;20060;-62
2022/01/24 11:54:30;;;;;;;52.92;19.58;;;;;;;;;;6220184;28;20041;-61
2022/01/24 11:57:38;;;;;;;44.85;18.42;;;;;;;;;;6219791;28;20049;-61
2022/01/24 12:00:44;;;;;;;48.10;16.60;;;;;;;;;;6217350;28;20041;-60
2022/01/24 12:03:52;;;;;;;45.58;18.45;;;;;;;;;;6221822;28;20061;-61
2022/01/24 12:07:15;;;;;;;39.90;17.35;;;;;;;;;;6222879;28;20140;-61
2022/01/24 12:10:34;;;;;;;44.95;18.52;;;;;;;;;;6221574;28;20054;-61
2022/01/24 12:13:41;;;;;;;42.47;18.55;;;;;;;;;;6226185;28;20061;-61
2022/01/24 12:16:43;;;;;;;41.90;17.48;;;;;;;;;;6226283;28;20144;-61
2022/01/24 12:19:43;;;;;;;46.00;17.70;;;;;;;;;;6223938;28;20054;-60
2022/01/24 12:22:49;;;;;;;48.63;19.25;;;;;;;;;;6224424;28;21196;-61
2022/01/24 12:25:57;;;;;;;47.17;19.30;;;;;;;;;;6225957;28;20044;-61
2022/01/24 12:29:11;;;;;;;64.68;21.30;;;;;;;;;;6225917;28;20077;-60
2022/01/24 12:32:23;;;;;;;74.03;26.45;;;;;;;;;;6228023;28;20052;-61
2022/01/24 12:35:28;;;;;;;53.83;21.25;;;;;;;;;;6228979;28;20073;-61
2022/01/24 12:38:49;;;;;;;57.97;22.40;;;;;;;;;;6226919;28;20042;-61
2022/01/24 12:42:04;;;;;;;90.38;31.33;;;;;;;;;;6202835;28;20081;-60
2022/01/24 12:48:33;;;;;;;48.28;19.77;;;;;;;;;;6198016;28;20166;-61
2022/01/24 12:51:38;;;;;;;58.45;21.02;;;;;;;;;;6199596;28;20056;-61
2022/01/24 12:54:44;;;;;;;85.32;26.75;;;;;;;;;;6201378;28;20960;-61
2022/01/24 12:57:45;;;;;;;66.22;24.17;;;;;;;;;;6201219;28;20060;-61
2022/01/24 13:00:47;;;;;;;115.38;37.63;;;;;;;;;;6202018;28;20543;-59
2022/01/24 13:03:51;;;;;;;109.25;37.30;;;;;;;;;;6205085;28;20132;-61
2022/01/24 13:06:52;;;;;;;84.70;30.75;;;;;;;;;;6207322;28;20132;-62
2022/01/24 13:10:01;;;;;;;108.28;34.72;;;;;;;;;;6206645;28;20425;-61
2022/01/24 13:13:10;;;;;;;103.47;37.33;;;;;;;;;;6200387;28;20497;-61
2022/01/24 13:23:11;;;;;;;72.63;27.17;;;;;;;;;;6197949;28;20053;-61
2022/01/24 13:26:13;;;;;;;59.10;25.65;;;;;;;;;;6204095;28;20850;-61
2022/01/24 13:29:13;;;;;;;83.88;33.08;;;;;;;;;;6199100;28;20053;-61
2022/01/24 13:32:14;;;;;;;96.70;39.85;;;;;;;;;;6200018;28;21512;-61
2022/01/24 13:35:29;;;;;;;88.93;34.83;;;;;;;;;;6202039;28;20062;-61
2022/01/24 13:38:33;;;;;;;64.82;26.00;;;;;;;;;;6197984;28;20096;-61
2022/01/24 13:41:34;;;;;;;66.88;24.48;;;;;;;;;;6219280;28;20501;-60
2022/01/24 13:44:34;;;;;;;64.80;25.85;;;;;;;;;;6225684;28;20103;-61
2022/01/24 13:47:35;;;;;;;63.88;26.27;;;;;;;;;;6223966;28;20054;-60
2022/01/24 13:50:36;;;;;;;86.07;32.97;;;;;;;;;;6223588;28;20082;-61
2022/01/24 13:53:46;;;;;;;90.85;33.30;;;;;;;;;;6227102;28;20377;-61
2022/01/24 13:56:50;;;;;;;76.28;28.45;;;;;;;;;;6223771;28;20131;-61
2022/01/24 13:59:51;;;;;;;63.90;25.58;;;;;;;;;;6222238;28;20136;-61
2022/01/24 14:03:09;;;;;;;90.68;36.78;;;;;;;;;;6223203;28;20187;-61
2022/01/24 14:06:15;;;;;;;73.00;29.25;;;;;;;;;;6225472;28;20056;-62
2022/01/24 14:09:15;;;;;;;89.18;31.92;;;;;;;;;;6228526;28;20656;-61
2022/01/24 14:12:18;;;;;;;87.28;31.15;;;;;;;;;;6226630;28;20046;-61
2022/01/24 14:18:29;;;;;;;90.20;35.13;;;;;;;;;;6221771;28;20041;-60
2022/01/24 14:21:30;;;;;;;107.82;37.90;;;;;;;;;;6223219;28;20473;-61
2022/01/24 14:24:55;;;;;;;111.10;40.30;;;;;;;;;;6222076;28;20060;-61
2022/01/24 14:28:06;;;;;;;124.60;43.75;;;;;;;;;;6222209;28;20530;-61
2022/01/24 14:31:13;;;;;;;100.10;37.65;;;;;;;;;;6223774;28;20053;-60
2022/01/24 14:34:19;;;;;;;281.33;82.93;;;;;;;;;;6224386;28;21186;-61
2022/01/24 14:37:19;;;;;;;210.88;59.35;;;;;;;;;;6225682;28;20069;-60
2022/01/24 14:40:46;;;;;;;290.35;77.00;;;;;;;;;;6224994;28;20077;-61
2022/01/24 14:47:08;;;;;;;231.98;70.90;;;;;;;;;;6223616;28;20065;-63
2022/01/24 14:50:08;;;;;;;158.10;52.38;;;;;;;;;;6226412;28;20223;-61
2022/01/24 14:53:12;;;;;;;182.95;59.42;;;;;;;;;;6223035;28;20041;-60
2022/01/24 14:56:13;;;;;;;177.00;57.78;;;;;;;;;;6222415;28;20049;-61
2022/01/24 14:59:15;;;;;;;172.75;56.63;;;;;;;;;;6221572;28;20169;-61
2022/01/24 15:02:15;;;;;;;129.93;46.88;;;;;;;;;;6224679;28;20060;-60
2022/01/24 15:05:17;;;;;;;140.68;51.88;;;;;;;;;;6223403;28;20581;-61
2022/01/24 15:08:17;;;;;;;103.75;38.35;;;;;;;;;;6223678;28;20159;-60
2022/01/24 15:11:21;;;;;;;81.95;32.75;;;;;;;;;;6220903;28;20088;-60
2022/01/24 15:14:46;;;;;;;83.63;31.60;;;;;;;;;;6222715;28;20060;-61
2022/01/24 15:24:33;;;;;;;73.38;29.95;;;;;;;;;;6224423;28;20080;-61
2022/01/24 15:27:34;;;;;;;79.97;30.60;;;;;;;;;;6220253;28;20072;-61
2022/01/24 15:30:35;;;;;;;83.22;34.70;;;;;;;;;;6220317;28;20132;-62
2022/01/24 15:33:35;;;;;;;115.13;44.58;;;;;;;;;;6221943;28;20505;-60
2022/01/24 15:36:39;;;;;;;89.53;36.22;;;;;;;;;;6222032;28;20052;-61
2022/01/24 15:39:40;;;;;;;112.10;44.28;;;;;;;;;;6221291;28;20046;-61
2022/01/24 15:42:59;;;;;;;86.25;37.80;;;;;;;;;;6223268;28;20053;-61
2022/01/24 15:46:23;;;;;;;159.10;56.60;;;;;;;;;;6224419;28;20048;-61
2022/01/24 15:49:20;;;;;;;102.35;42.65;;;;;;;;;;6224200;28;20085;-61
2022/01/24 15:52:22;;;;;;;109.97;41.85;;;;;;;;;;6228891;28;20591;-61
2022/01/24 15:55:28;;;;;;;104.60;40.85;;;;;;;;;;6226640;28;21384;-61
2022/01/24 15:58:30;;;;;;;115.00;43.97;;;;;;;;;;6225383;28;21105;-61
2022/01/24 16:01:32;;;;;;;109.75;38.35;;;;;;;;;;6225698;28;20080;-60
2022/01/24 16:04:33;;;;;;;161.55;56.05;;;;;;;;;;6224644;28;20054;-61
2022/01/24 16:07:36;;;;;;;113.05;41.80;;;;;;;;;;6225004;28;20120;-61
2022/01/24 16:10:36;;;;;;;114.72;41.25;;;;;;;;;;6226148;28;20734;-60
2022/01/24 16:13:37;;;;;;;153.50;53.30;;;;;;;;;;6224586;28;20053;-61
2022/01/24 16:16:38;;;;;;;116.13;46.40;;;;;;;;;;6224393;28;20158;-61
2022/01/24 16:19:45;;;;;;;91.50;37.80;;;;;;;;;;6228441;28;20558;-59
2022/01/24 16:23:20;;;;;;;92.55;38.08;;;;;;;;;;6233464;28;20073;-59
2022/01/24 16:26:20;;;;;;;93.30;37.22;;;;;;;;;;6233337;28;20073;-60
2022/01/24 16:29:21;;;;;;;130.18;58.75;;;;;;;;;;6230648;28;20416;-61
2022/01/24 16:32:22;;;;;;;126.70;49.60;;;;;;;;;;6231168;28;20100;-60
2022/01/24 16:35:23;;;;;;;155.10;61.33;;;;;;;;;;6234344;28;20049;-59
2022/01/24 16:38:26;;;;;;;171.80;69.63;;;;;;;;;;6233252;28;20578;-59
2022/01/24 16:41:42;;;;;;;118.43;43.08;;;;;;;;;;6230858;28;20061;-60
2022/01/24 16:44:58;;;;;;;85.70;34.80;;;;;;;;;;6232573;28;20147;-60
2022/01/24 16:47:58;;;;;;;110.32;45.25;;;;;;;;;;6233525;28;20048;-61
2022/01/24 16:51:01;;;;;;;97.38;38.70;;;;;;;;;;6231654;28;21091;-60
2022/01/24 16:54:11;;;;;;;88.85;35.83;;;;;;;;;;6233254;28;20121;-60
2022/01/24 16:57:15;;;;;;;107.68;36.95;;;;;;;;;;6233310;28;20061;-60
2022/01/24 17:00:16;;;;;;;99.20;35.70;;;;;;;;;;6231440;28;20077;-60
2022/01/24 17:03:17;;;;;;;99.30;36.67;;;;;;;;;;6234087;28;20081;-60
2022/01/24 17:06:18;;;;;;;126.63;42.38;;;;;;;;;;6231324;28;20857;-61
2022/01/24 17:09:20;;;;;;;108.65;37.97;;;;;;;;;;6232185;28;20053;-61
2022/01/24 17:12:26;;;;;;;92.57;34.55;;;;;;;;;;6233174;28;20057;-61
2022/01/24 17:15:27;;;;;;;89.05;35.10;;;;;;;;;;6233507;28;20065;-60
2022/01/24 17:18:30;;;;;;;92.70;35.47;;;;;;;;;;6230859;28;20041;-61
2022/01/24 17:21:32;;;;;;;109.97;39.35;;;;;;;;;;6233629;28;20416;-61
2022/01/24 17:24:34;;;;;;;119.17;41.40;;;;;;;;;;6231314;28;20075;-61
2022/01/24 17:27:35;;;;;;;104.68;38.55;;;;;;;;;;6229609;28;20096;-60
2022/01/24 17:30:36;;;;;;;105.47;38.65;;;;;;;;;;6232326;28;20042;-60
2022/01/24 17:33:37;;;;;;;108.25;37.60;;;;;;;;;;6232425;28;20104;-61
2022/01/24 17:36:38;;;;;;;162.13;52.45;;;;;;;;;;6231826;28;20056;-60
2022/01/24 17:39:39;;;;;;;122.53;40.63;;;;;;;;;;6230799;28;20645;-60
2022/01/24 17:42:41;;;;;;;110.80;41.42;;;;;;;;;;6232380;28;20046;-60
2022/01/24 17:45:41;;;;;;;169.23;51.53;;;;;;;;;;6232955;28;20095;-60
2022/01/24 17:48:42;;;;;;;268.20;77.72;;;;;;;;;;6232561;28;20049;-59
2022/01/24 17:51:43;;;;;;;135.18;49.28;;;;;;;;;;6232045;28;20056;-60
2022/01/24 17:54:43;;;;;;;122.90;46.03;;;;;;;;;;6231618;28;20057;-62
2022/01/24 17:57:44;;;;;;;308.52;89.30;;;;;;;;;;6233601;28;20224;-61
2022/01/24 18:00:45;;;;;;;169.00;57.30;;;;;;;;;;6229488;28;20484;-60
2022/01/24 18:03:46;;;;;;;120.00;44.60;;;;;;;;;;6231697;28;20135;-60
2022/01/24 18:06:49;;;;;;;141.77;50.33;;;;;;;;;;6232746;28;20053;-61
2022/01/24 18:09:50;;;;;;;122.07;44.80;;;;;;;;;;6230815;28;20065;-62
2022/01/24 18:12:53;;;;;;;113.18;42.05;;;;;;;;;;6228921;28;20076;-61
2022/01/24 18:15:53;;;;;;;112.10;43.78;;;;;;;;;;6232304;28;20061;-61
2022/01/24 18:18:54;;;;;;;179.13;72.25;;;;;;;;;;6230901;28;20171;-62
2022/01/24 18:21:55;;;;;;;458.85;145.98;;;;;;;;;;6231179;28;20046;-61
2022/01/24 18:24:55;;;;;;;705.30;254.00;;;;;;;;;;6229833;28;20037;-61
2022/01/24 18:27:56;;;;;;;530.47;170.32;;;;;;;;;;6232621;28;20405;-61
2022/01/24 18:30:59;;;;;;;301.27;97.15;;;;;;;;;;6228545;28;20133;-61
2022/01/24 18:34:00;;;;;;;201.80;67.15;;;;;;;;;;6230333;28;20132;-62
2022/01/24 18:37:00;;;;;;;180.40;59.80;;;;;;;;;;6232860;28;20041;-61
2022/01/24 18:40:02;;;;;;;167.48;55.42;;;;;;;;;;6229042;28;20051;-61
2022/01/24 18:43:03;;;;;;;142.82;51.10;;;;;;;;;;6229538;28;20716;-61
2022/01/24 18:46:06;;;;;;;141.13;50.72;;;;;;;;;;6229934;28;20175;-62
2022/01/24 18:49:06;;;;;;;;;;;;;;;;;;6229038;28;20061;-62
2022/01/24 18:52:07;;;;;;;241.20;96.60;;;;;;;;;;6229687;28;19929;-62
2022/01/24 18:55:08;;;;;;;196.68;80.13;;;;;;;;;;6230901;28;20045;-61
2022/01/24 18:58:09;;;;;;;162.77;64.68;;;;;;;;;;6232520;28;20492;-62
2022/01/24 19:01:11;;;;;;;177.10;74.25;;;;;;;;;;6228042;28;20092;-60
2022/01/24 19:04:12;;;;;;;165.75;71.38;;;;;;;;;;6229799;28;20069;-58
2022/01/24 19:07:12;;;;;;;226.05;79.40;;;;;;;;;;6227918;28;20073;-61
2022/01/24 19:10:14;;;;;;;204.23;69.43;;;;;;;;;;6227340;28;20053;-61
2022/01/24 19:13:18;;;;;;;148.48;53.28;;;;;;;;;;6228740;28;20103;-59
2022/01/24 19:16:19;;;;;;;236.32;78.25;;;;;;;;;;6229752;28;20092;-61
2022/01/24 19:25:42;;;;;;;133.32;49.20;;;;;;;;;;6230182;28;20140;-61
2022/01/24 19:28:45;;;;;;;119.93;47.50;;;;;;;;;;6227817;28;20696;-61
2022/01/24 19:31:46;;;;;;;129.98;47.22;;;;;;;;;;6231276;28;20045;-62